createdAt,value
2018-12-26T00:07:15.248Z,3.20
2018-12-26T01:39:41.611Z,4.85
2018-12-26T02:09:38.600Z,3.75
2018-12-26T02:27:14.724Z,3.92
2018-12-26T03:02:47.257Z,5.53
2018-12-26T03:05:27.891Z,5.83
2018-12-26T03:08:09.396Z,5.85
2018-12-26T03:10:51.182Z,5.50
2018-12-26T03:16:44.784Z,6.33
2018-12-26T03:28:43.687Z,8.90
2018-12-26T03:58:24.140Z,11.20
2018-12-26T04:01:05.490Z,11.88
2018-12-26T04:06:46.832Z,12.18
2018-12-26T04:09:28.340Z,11.43
2018-12-26T04:24:08.793Z,13.55
2018-12-26T05:02:44.463Z,10.63
2018-12-26T05:29:07.871Z,14.53
2018-12-26T05:31:36.632Z,16.23
2018-12-26T05:34:05.388Z,15.10
2018-12-26T05:36:34.425Z,14.38
2018-12-26T05:39:04.385Z,17.00
2018-12-26T05:41:33.199Z,15.15
2018-12-26T05:44:02.021Z,15.75
2018-12-26T05:46:30.835Z,16.25
2018-12-26T05:48:59.597Z,16.20
2018-12-26T05:51:28.385Z,18.50
2018-12-26T05:53:57.129Z,15.75
2018-12-26T05:56:25.990Z,14.70
2018-12-26T05:58:54.842Z,15.43
2018-12-26T06:01:23.692Z,16.52
2018-12-26T06:03:52.522Z,16.82
2018-12-26T06:06:21.285Z,16.82
2018-12-26T06:08:50.120Z,17.17
2018-12-26T06:11:18.876Z,17.32
2018-12-26T06:13:47.648Z,17.02
2018-12-26T06:16:16.420Z,15.95
2018-12-26T06:18:45.207Z,17.27
2018-12-26T06:21:13.945Z,16.77
2018-12-26T06:23:42.753Z,14.98
2018-12-26T06:26:11.559Z,15.63
2018-12-26T06:28:40.365Z,16.85
2018-12-26T06:31:09.143Z,16.67
2018-12-26T06:33:38.196Z,15.60
2018-12-26T06:36:07.016Z,16.20
2018-12-26T06:38:35.814Z,16.70
2018-12-26T06:41:04.633Z,17.05
2018-12-26T06:43:33.384Z,17.25
2018-12-26T06:46:02.140Z,18.70
2018-12-26T06:48:30.946Z,16.95
2018-12-26T06:50:59.710Z,15.72
2018-12-26T06:53:28.464Z,14.75
2018-12-26T06:55:57.227Z,17.37
2018-12-26T06:58:25.983Z,18.10
2018-12-26T07:00:55.060Z,18.40
2018-12-26T07:03:26.014Z,18.12
2018-12-26T07:05:54.327Z,17.48
2018-12-26T07:08:23.113Z,17.17
2018-12-26T07:10:52.001Z,17.05
2018-12-26T07:13:20.789Z,18.32
2018-12-26T07:15:49.618Z,17.60
2018-12-26T07:18:18.407Z,19.73
2018-12-26T07:20:47.234Z,18.90
2018-12-26T07:23:15.995Z,19.32
2018-12-26T07:25:44.810Z,19.95
2018-12-26T07:28:13.606Z,20.52
2018-12-26T07:30:42.440Z,17.35
2018-12-26T07:33:11.283Z,16.62
2018-12-26T07:35:40.043Z,17.15
2018-12-26T07:38:08.794Z,16.60
2018-12-26T07:40:37.540Z,16.17
2018-12-26T07:43:06.330Z,18.02
2018-12-26T07:45:35.099Z,17.50
2018-12-26T07:48:03.844Z,16.55
2018-12-26T07:50:32.592Z,16.73
2018-12-26T07:53:01.375Z,16.85
2018-12-26T07:55:30.204Z,18.42
2018-12-26T07:57:58.995Z,17.20
2018-12-26T08:00:27.818Z,15.48
2018-12-26T08:02:56.567Z,16.25
2018-12-26T08:05:25.307Z,16.20
2018-12-26T08:07:54.095Z,14.47
2018-12-26T08:10:22.946Z,16.87
2018-12-26T08:12:51.697Z,17.20
2018-12-26T08:15:20.789Z,17.32
2018-12-26T08:17:49.539Z,16.95
2018-12-26T08:20:18.307Z,16.67
2018-12-26T08:22:47.137Z,16.50
2018-12-26T08:25:15.878Z,16.93
2018-12-26T08:27:44.652Z,15.03
2018-12-26T08:30:13.446Z,16.15
2018-12-26T08:32:42.309Z,18.48
2018-12-26T08:35:11.157Z,17.55
2018-12-26T08:37:40.026Z,16.62
2018-12-26T08:40:08.805Z,18.00
2018-12-26T08:42:37.547Z,18.05
2018-12-26T08:45:06.394Z,18.00
2018-12-26T08:47:35.157Z,17.50
2018-12-26T08:50:04.181Z,19.57
2018-12-26T08:52:32.944Z,17.05
2018-12-26T08:55:01.692Z,17.05
2018-12-26T08:57:30.474Z,18.65
2018-12-26T08:59:59.253Z,16.55
2018-12-26T09:02:28.003Z,15.43
2018-12-26T09:04:56.766Z,16.27
2018-12-26T09:07:25.857Z,16.62
2018-12-26T09:09:54.625Z,16.60
2018-12-26T09:12:23.496Z,15.80
2018-12-26T09:14:52.387Z,14.28
2018-12-26T09:17:21.539Z,15.90
2018-12-26T09:19:50.349Z,14.98
2018-12-26T09:22:19.146Z,14.35
2018-12-26T09:24:47.914Z,13.80
2018-12-26T09:27:16.738Z,11.18
2018-12-26T09:29:45.543Z,12.68
2018-12-26T09:32:14.649Z,10.93
2018-12-26T09:34:43.424Z,12.90
2018-12-26T09:37:12.251Z,10.00
2018-12-26T09:39:41.043Z,12.85
2018-12-26T09:42:09.785Z,14.98
2018-12-26T09:44:38.548Z,10.68
2018-12-26T09:47:07.325Z,12.03
2018-12-26T09:49:36.125Z,10.32
2018-12-26T09:52:04.974Z,12.90
2018-12-26T09:54:33.717Z,12.80
2018-12-26T09:57:02.510Z,14.35
2018-12-26T09:59:31.324Z,12.98
2018-12-26T10:02:00.161Z,13.48
2018-12-26T10:04:28.924Z,13.25
2018-12-26T10:06:57.711Z,15.75
2018-12-26T10:09:26.455Z,16.15
2018-12-26T10:11:55.242Z,15.88
2018-12-26T10:14:24.049Z,16.57
2018-12-26T10:16:52.795Z,15.32
2018-12-26T10:19:21.605Z,15.05
2018-12-26T10:21:50.405Z,11.80
2018-12-26T10:24:19.226Z,15.35
2018-12-26T10:26:48.055Z,17.15
2018-12-26T10:29:16.885Z,16.20
2018-12-26T10:31:45.649Z,15.35
2018-12-26T10:34:14.442Z,14.98
2018-12-26T10:36:43.208Z,14.38
2018-12-26T10:39:11.992Z,14.85
2018-12-26T10:41:40.746Z,15.93
2018-12-26T10:44:09.526Z,12.85
2018-12-26T10:46:38.299Z,13.38
2018-12-26T10:49:07.296Z,15.23
2018-12-26T10:51:36.035Z,16.12
2018-12-26T10:54:04.829Z,15.53
2018-12-26T10:56:33.576Z,12.23
2018-12-26T10:59:09.970Z,14.33
2018-12-26T11:01:32.852Z,16.07
2018-12-26T11:04:01.625Z,15.95
2018-12-26T11:06:30.392Z,16.30
2018-12-26T11:08:59.173Z,16.00
2018-12-26T11:11:28.003Z,15.70
2018-12-26T11:13:56.795Z,15.00
2018-12-26T11:16:26.370Z,13.48
2018-12-26T11:18:55.256Z,14.35
2018-12-26T11:21:24.012Z,14.70
2018-12-26T11:23:52.784Z,14.65
2018-12-26T11:26:21.556Z,12.63
2018-12-26T11:29:09.397Z,15.70
2018-12-26T11:31:57.156Z,14.70
2018-12-26T11:34:45.130Z,15.10
2018-12-26T11:37:32.927Z,14.98
2018-12-26T11:40:20.961Z,12.80
2018-12-26T11:43:08.753Z,14.35
2018-12-26T11:49:03.752Z,13.95
2018-12-26T11:51:51.580Z,15.80
2018-12-26T11:54:39.341Z,13.72
2018-12-26T11:57:27.130Z,14.05
2018-12-26T12:00:15.133Z,14.87
2018-12-26T12:03:02.909Z,9.60
2018-12-26T12:05:50.664Z,14.13
2018-12-26T12:08:38.605Z,13.08
2018-12-26T12:11:26.601Z,12.43
2018-12-26T12:14:14.690Z,13.28
2018-12-26T12:17:02.451Z,12.40
2018-12-26T12:19:50.221Z,14.45
2018-12-26T12:22:30.942Z,13.40
2018-12-26T12:28:24.488Z,12.65
2018-12-26T12:37:17.643Z,13.93
2018-12-26T12:39:59.149Z,13.90
2018-12-26T12:42:39.852Z,14.78
2018-12-26T12:48:19.549Z,14.63
2018-12-26T13:29:53.837Z,16.20
2018-12-26T14:05:41.486Z,18.70
2018-12-26T14:08:22.161Z,19.50
2018-12-26T14:20:00.319Z,23.75
2018-12-26T14:46:48.315Z,15.48
2018-12-26T16:01:20.628Z,15.95
2018-12-26T16:15:57.910Z,15.05
2018-12-26T16:18:39.492Z,13.78
2018-12-26T16:21:20.808Z,14.33
2018-12-26T16:33:14.542Z,16.12
2018-12-26T16:35:55.246Z,16.00
2018-12-26T16:38:33.744Z,18.27
2018-12-26T17:02:07.950Z,18.27
2018-12-26T17:04:48.512Z,16.85
2018-12-26T17:07:29.890Z,15.00
2018-12-26T17:10:11.093Z,16.70
2018-12-26T17:28:01.917Z,18.02
2018-12-26T17:30:30.721Z,15.70
2018-12-26T17:33:00.801Z,16.42
2018-12-26T17:35:29.851Z,17.23
2018-12-26T17:37:58.673Z,18.37
2018-12-26T17:40:27.454Z,18.90
2018-12-26T17:42:56.241Z,18.90
2018-12-26T17:45:25.018Z,18.73
2018-12-26T17:47:55.880Z,18.80
2018-12-26T17:50:46.300Z,18.15
2018-12-26T17:53:26.310Z,19.48
2018-12-26T17:56:13.453Z,17.73
2018-12-26T17:58:57.359Z,20.50
2018-12-26T18:01:31.995Z,18.00
2018-12-26T18:04:00.740Z,18.35
2018-12-26T18:06:29.525Z,17.70
2018-12-26T18:08:58.272Z,15.95
2018-12-26T18:11:27.026Z,16.40
2018-12-26T18:13:55.812Z,17.17
2018-12-26T18:16:24.677Z,16.12
2018-12-26T18:18:53.456Z,34.75
2018-12-26T18:21:22.281Z,19.10
2018-12-26T18:23:51.026Z,19.17
2018-12-26T18:26:19.861Z,17.85
2018-12-26T18:28:48.795Z,21.50
2018-12-26T18:31:21.983Z,19.35
2018-12-26T18:33:48.068Z,19.30
2018-12-26T18:36:17.011Z,21.07
2018-12-26T18:38:45.781Z,21.33
2018-12-26T18:41:14.559Z,21.02
2018-12-26T18:43:43.389Z,20.62
2018-12-26T18:46:12.163Z,23.05
2018-12-26T18:48:40.965Z,22.45
2018-12-26T18:51:09.804Z,28.77
2018-12-26T18:53:38.631Z,25.10
2018-12-26T18:56:07.658Z,25.37
2018-12-26T18:58:36.467Z,26.68
2018-12-26T19:01:05.284Z,25.97
2018-12-26T19:03:34.153Z,26.15
2018-12-26T19:06:02.942Z,30.20
2018-12-26T19:08:31.833Z,29.27
2018-12-26T19:11:00.642Z,29.35
2018-12-26T19:13:29.459Z,30.27
2018-12-26T19:15:58.273Z,28.17
2018-12-26T19:18:27.058Z,32.63
2018-12-26T19:20:55.949Z,31.97
2018-12-26T19:23:24.738Z,32.00
2018-12-26T19:25:53.525Z,32.23
2018-12-26T19:28:22.368Z,32.03
2018-12-26T19:30:51.148Z,34.43
2018-12-26T19:33:20.019Z,29.65
2018-12-26T19:35:48.958Z,32.95
2018-12-26T19:38:17.729Z,33.73
2018-12-26T19:40:46.509Z,36.48
2018-12-26T19:43:15.267Z,36.83
2018-12-26T19:45:44.063Z,33.90
2018-12-26T19:48:12.818Z,37.80
2018-12-26T19:50:41.606Z,113.05
2018-12-26T19:53:10.401Z,44.08
2018-12-26T19:55:39.206Z,37.00
2018-12-26T19:58:07.985Z,35.80
2018-12-26T20:00:36.748Z,31.33
2018-12-26T20:03:05.597Z,37.17
2018-12-26T20:05:34.335Z,34.13
2018-12-26T20:08:03.114Z,36.73
2018-12-26T20:10:31.889Z,34.88
2018-12-26T20:13:00.687Z,33.53
2018-12-26T20:15:29.479Z,36.35
2018-12-26T20:17:58.336Z,34.05
2018-12-26T20:20:27.226Z,30.82
2018-12-26T20:22:56.176Z,34.58
2018-12-26T20:25:24.929Z,36.88
2018-12-26T20:27:53.717Z,34.95
2018-12-26T20:30:23.513Z,35.85
2018-12-26T20:32:52.302Z,38.10
2018-12-26T20:35:21.125Z,37.38
2018-12-26T20:37:51.563Z,39.60
2018-12-26T20:40:20.428Z,37.90
2018-12-26T20:42:49.211Z,36.83
2018-12-26T20:45:18.093Z,37.28
2018-12-26T20:47:47.120Z,35.25
2018-12-26T20:50:15.884Z,35.17
2018-12-26T20:52:44.648Z,36.40
2018-12-26T20:55:13.431Z,33.38
2018-12-26T20:57:42.274Z,36.68
2018-12-26T21:00:11.162Z,37.23
2018-12-26T21:02:39.950Z,38.00
2018-12-26T21:05:09.030Z,36.10
2018-12-26T21:07:37.980Z,39.00
2018-12-26T21:10:08.067Z,36.33
2018-12-26T21:12:36.910Z,39.67
2018-12-26T21:15:06.595Z,40.70
2018-12-26T21:17:35.356Z,38.65
2018-12-26T21:20:05.993Z,38.55
2018-12-26T21:22:34.864Z,36.88
2018-12-26T21:25:03.961Z,35.63
2018-12-26T21:27:32.875Z,36.98
2018-12-26T21:30:01.699Z,40.67
2018-12-26T21:32:30.633Z,37.08
2018-12-26T21:34:59.387Z,38.88
2018-12-26T21:37:28.153Z,38.13
2018-12-26T21:39:56.938Z,39.58
2018-12-26T21:42:25.746Z,39.10
2018-12-26T21:44:54.484Z,37.85
2018-12-26T21:47:23.260Z,40.23
2018-12-26T21:49:52.068Z,37.88
2018-12-26T21:52:20.849Z,38.73
2018-12-26T21:54:49.702Z,37.50
2018-12-26T21:57:18.602Z,39.60
2018-12-26T21:59:47.408Z,38.25
2018-12-26T22:02:22.426Z,38.30
2018-12-26T22:04:46.690Z,37.60
2018-12-26T22:07:15.478Z,39.67
2018-12-26T22:09:44.265Z,36.93
2018-12-26T22:12:13.097Z,33.78
2018-12-26T22:14:41.871Z,35.40
2018-12-26T22:17:10.903Z,35.90
2018-12-26T22:19:39.756Z,34.65
2018-12-26T22:22:08.527Z,34.58
2018-12-26T22:24:37.577Z,36.30
2018-12-26T22:27:06.401Z,35.28
2018-12-26T22:29:35.190Z,36.85
2018-12-26T22:32:04.019Z,36.73
2018-12-26T22:34:32.854Z,37.85
2018-12-26T22:37:01.602Z,37.30
2018-12-26T22:39:30.380Z,36.00
2018-12-26T22:41:59.488Z,36.68
2018-12-26T22:44:28.317Z,36.70
2018-12-26T22:46:57.170Z,34.78
2018-12-26T22:49:25.987Z,36.28
2018-12-26T22:51:54.757Z,33.60
2018-12-26T22:54:23.505Z,31.25
2018-12-26T22:56:52.316Z,32.48
2018-12-26T22:59:21.233Z,31.82
2018-12-26T23:01:51.058Z,28.57
2018-12-26T23:04:19.877Z,29.42
2018-12-26T23:06:48.688Z,30.25
2018-12-26T23:09:17.553Z,30.77
2018-12-26T23:11:46.455Z,26.97
2018-12-26T23:14:15.387Z,30.35
2018-12-26T23:16:44.614Z,29.00
2018-12-26T23:19:13.577Z,30.60
2018-12-26T23:21:42.431Z,31.25
2018-12-26T23:24:11.338Z,27.60
2018-12-26T23:26:40.251Z,30.82
2018-12-26T23:29:28.054Z,26.73
2018-12-26T23:47:16.842Z,24.25
